Terminal Aerodrome Forecast
Issued by NWS

Current Version | Previous Version | Text Only | Print | Product List | Glossary Off
Versions: 1 2 3 4 5 6 7 8 9 10 11 12 13 14 15 16 17 18 19 20 21 22 23

038
FTUS41 KRLX 191750
TAFCKB
TAF
KCKB 191750Z 1918/2018 21008KT P6SM SCT040 SCT060 BKN070
     FM191900 21008KT P6SM VCTS BKN045CB BKN200
      TEMPO 1920/1922 VRB10G25KT 2SM TSRA OVC035CB
     FM200000 00000KT P6SM BKN150
     FM200800 00000KT 2SM BR SCT200
     FM201300 VRB04KT P6SM SCT050 SCT200=

USA.gov is the U.S. government's official web portal to all federal, state and local government web resources and services.